Time;durP1;ratioP1;P1;durP2;ratioP2;P2;SDS_P1;SDS_P2;PMS_P1;PMS_P2;Temp;Humidity;BMP_temperature;BMP_pressure;BME280_temperature;BME280_humidity;BME280_pressure;Samples;Min_cycle;Max_cycle;Signal;HPM_P1;HPM_P2
2023/09/19 00:02:04;;;;;;;2.15;0.30;;;;;;;;;;5061932;28;20044;-80
2023/09/19 00:04:33;;;;;;;3.45;0.40;;;;;;;;;;5078014;28;20048;-80
2023/09/19 00:07:03;;;;;;;1.40;0.30;;;;;;;;;;5078677;28;20046;-80
2023/09/19 00:09:29;;;;;;;3.42;0.45;;;;;;;;;;5077675;28;20138;-80
2023/09/19 00:11:55;;;;;;;3.10;0.30;;;;;;;;;;5077703;28;20098;-80
2023/09/19 00:14:25;;;;;;;2.88;0.32;;;;;;;;;;5077725;28;20052;-80
2023/09/19 00:16:51;;;;;;;5.63;0.32;;;;;;;;;;5078420;28;20052;-80
2023/09/19 00:19:17;;;;;;;3.15;0.35;;;;;;;;;;5061290;28;20040;-80
2023/09/19 00:21:43;;;;;;;4.70;0.50;;;;;;;;;;5044331;28;20086;-80
2023/09/19 00:24:09;;;;;;;4.47;0.60;;;;;;;;;;5077388;28;20047;-80
2023/09/19 00:26:36;;;;;;;3.85;0.52;;;;;;;;;;5077371;28;20059;-79
2023/09/19 00:29:03;;;;;;;3.55;0.60;;;;;;;;;;5060424;28;20048;-79
2023/09/19 00:31:29;;;;;;;5.50;0.63;;;;;;;;;;5077241;28;20098;-79
2023/09/19 00:33:59;;;;;;;5.05;0.77;;;;;;;;;;5060554;28;20055;-80
2023/09/19 00:36:26;;;;;;;3.90;0.52;;;;;;;;;;5077373;28;20499;-79
2023/09/19 00:38:52;;;;;;;3.75;1.02;;;;;;;;;;5076908;28;20036;-79
2023/09/19 00:41:19;;;;;;;6.00;0.80;;;;;;;;;;5060114;28;20052;-79
2023/09/19 00:43:45;;;;;;;6.38;0.60;;;;;;;;;;5077080;28;20056;-79
2023/09/19 00:46:11;;;;;;;3.75;0.65;;;;;;;;;;5077030;28;20062;-79
2023/09/19 00:48:43;;;;;;;7.07;0.75;;;;;;;;;;5076666;28;20052;-79
2023/09/19 00:51:09;;;;;;;6.05;0.60;;;;;;;;;;5076894;28;20506;-79
2023/09/19 00:53:36;;;;;;;7.65;0.63;;;;;;;;;;5076888;28;20078;-79
2023/09/19 00:56:07;;;;;;;7.18;0.65;;;;;;;;;;5076728;28;20137;-80
2023/09/19 00:58:35;;;;;;;8.07;0.90;;;;;;;;;;5077024;28;20093;-79
2023/09/19 01:01:01;;;;;;;9.20;1.00;;;;;;;;;;5060041;28;20048;-79
2023/09/19 01:03:28;;;;;;;8.60;0.93;;;;;;;;;;5076634;28;20135;-79
2023/09/19 01:05:54;;;;;;;7.45;1.00;;;;;;;;;;5059373;28;20044;-81
2023/09/19 01:08:20;;;;;;;9.15;0.98;;;;;;;;;;5060809;28;20052;-80
2023/09/19 01:10:53;;;;;;;6.22;1.30;;;;;;;;;;5077410;28;20067;-79
2023/09/19 01:13:26;;;;;;;7.43;1.35;;;;;;;;;;5076182;28;20044;-79
2023/09/19 01:15:59;;;;;;;5.80;1.70;;;;;;;;;;5076523;28;20056;-79
2023/09/19 01:18:47;;;;;;;6.05;1.17;;;;;;;;;;5076186;28;20052;-79
2023/09/19 01:21:21;;;;;;;8.68;0.95;;;;;;;;;;5059746;28;20071;-79
2023/09/19 01:23:47;;;;;;;5.83;0.80;;;;;;;;;;5076629;28;20044;-80
2023/09/19 01:26:31;;;;;;;7.47;0.98;;;;;;;;;;5076746;28;20036;-79
2023/09/19 01:29:21;;;;;;;7.68;1.35;;;;;;;;;;5060470;28;20048;-79
2023/09/19 01:31:47;;;;;;;7.97;1.27;;;;;;;;;;5076816;28;20082;-79
2023/09/19 01:34:13;;;;;;;5.68;1.20;;;;;;;;;;5075824;28;20052;-79
2023/09/19 01:36:40;;;;;;;9.27;1.45;;;;;;;;;;5076148;28;20048;-79
2023/09/19 01:39:10;;;;;;;10.48;1.30;;;;;;;;;;5075875;28;20544;-79
2023/09/19 01:41:52;;;;;;;5.25;0.98;;;;;;;;;;5076397;28;20047;-79
2023/09/19 01:44:23;;;;;;;6.55;1.08;;;;;;;;;;5076853;28;20044;-78
2023/09/19 01:46:49;;;;;;;9.23;1.25;;;;;;;;;;5075836;28;20080;-78
2023/09/19 01:49:20;;;;;;;8.23;1.27;;;;;;;;;;5059713;28;20073;-79
2023/09/19 01:51:57;;;;;;;9.80;1.52;;;;;;;;;;5060081;28;20503;-79
2023/09/19 01:54:37;;;;;;;8.73;1.42;;;;;;;;;;5075558;28;20055;-79
2023/09/19 01:57:10;;;;;;;8.75;1.60;;;;;;;;;;5093585;28;20488;-79
2023/09/19 01:59:41;;;;;;;9.32;1.17;;;;;;;;;;5075484;28;20477;-79
2023/09/19 02:02:08;;;;;;;12.75;1.42;;;;;;;;;;5075708;28;20050;-79
2023/09/19 02:04:34;;;;;;;7.78;1.52;;;;;;;;;;5075765;28;20047;-79
2023/09/19 02:07:01;;;;;;;9.20;1.27;;;;;;;;;;5075909;28;20513;-79
2023/09/19 02:09:27;;;;;;;7.85;1.60;;;;;;;;;;5075794;28;20040;-79
2023/09/19 02:11:55;;;;;;;7.00;1.25;;;;;;;;;;5075808;28;20480;-79
2023/09/19 02:14:22;;;;;;;11.18;1.17;;;;;;;;;;5075771;28;20071;-78
2023/09/19 02:16:50;;;;;;;8.90;1.27;;;;;;;;;;5076515;28;20044;-79
2023/09/19 02:19:17;;;;;;;10.75;1.00;;;;;;;;;;5075757;28;20055;-80
2023/09/19 02:21:43;;;;;;;5.05;0.80;;;;;;;;;;5058966;28;20134;-79
2023/09/19 02:24:10;;;;;;;8.23;1.02;;;;;;;;;;5075593;28;20055;-79
2023/09/19 02:26:36;;;;;;;10.57;1.52;;;;;;;;;;5059154;28;20056;-79
2023/09/19 02:29:04;;;;;;;6.50;0.93;;;;;;;;;;5075429;28;20048;-80
2023/09/19 02:31:30;;;;;;;10.80;1.15;;;;;;;;;;5075328;28;20130;-80
2023/09/19 02:33:57;;;;;;;9.05;1.23;;;;;;;;;;5075336;28;20127;-79
2023/09/19 02:36:23;;;;;;;7.45;1.00;;;;;;;;;;5074748;28;20059;-79
2023/09/19 02:38:49;;;;;;;8.35;1.10;;;;;;;;;;5075787;28;20356;-79
2023/09/19 02:41:15;;;;;;;7.07;1.02;;;;;;;;;;5075173;28;20495;-79
2023/09/19 02:43:42;;;;;;;7.90;1.05;;;;;;;;;;5075296;28;20578;-79
2023/09/19 02:46:09;;;;;;;5.40;0.90;;;;;;;;;;5075402;28;20131;-80
2023/09/19 02:48:35;;;;;;;6.85;1.05;;;;;;;;;;5059111;28;20119;-79
2023/09/19 02:51:05;;;;;;;6.25;1.08;;;;;;;;;;5058613;28;20154;-79
2023/09/19 02:53:32;;;;;;;8.15;0.98;;;;;;;;;;5075432;28;20051;-80
2023/09/19 02:55:58;;;;;;;5.15;0.77;;;;;;;;;;5075267;28;20472;-79
2023/09/19 02:58:25;;;;;;;9.60;0.82;;;;;;;;;;5075378;28;20143;-79
2023/09/19 03:00:51;;;;;;;8.82;1.08;;;;;;;;;;5059547;28;20052;-79
2023/09/19 03:03:18;;;;;;;7.68;0.63;;;;;;;;;;5075563;28;20047;-79
2023/09/19 03:05:47;;;;;;;9.05;1.27;;;;;;;;;;5058426;28;20131;-79
2023/09/19 03:08:16;;;;;;;6.55;1.13;;;;;;;;;;5075670;28;20472;-79
2023/09/19 03:10:43;;;;;;;3.83;1.00;;;;;;;;;;5075952;28;20109;-79
2023/09/19 03:13:09;;;;;;;7.55;0.80;;;;;;;;;;5078801;28;20048;-79
2023/09/19 03:15:38;;;;;;;4.30;0.70;;;;;;;;;;5078697;28;20056;-80
2023/09/19 03:18:05;;;;;;;7.95;1.20;;;;;;;;;;5062198;28;20052;-79
2023/09/19 03:20:32;;;;;;;5.13;0.98;;;;;;;;;;5078352;28;20507;-79
2023/09/19 03:22:58;;;;;;;6.13;1.00;;;;;;;;;;5061884;28;20055;-79
2023/09/19 03:25:24;;;;;;;6.63;0.98;;;;;;;;;;5078368;28;20054;-79
2023/09/19 03:27:50;;;;;;;9.73;1.02;;;;;;;;;;5061759;28;20399;-78
2023/09/19 03:30:17;;;;;;;8.57;1.15;;;;;;;;;;5061883;28;20105;-79
2023/09/19 03:32:47;;;;;;;5.38;0.70;;;;;;;;;;5078363;28;20052;-79
2023/09/19 03:35:14;;;;;;;4.63;0.70;;;;;;;;;;5079144;28;20138;-79
2023/09/19 03:37:41;;;;;;;6.43;1.00;;;;;;;;;;5061582;28;20048;-79
2023/09/19 03:40:08;;;;;;;4.57;0.70;;;;;;;;;;5078135;28;20078;-79
2023/09/19 03:42:36;;;;;;;6.45;0.95;;;;;;;;;;5078525;28;20036;-79
2023/09/19 03:45:02;;;;;;;6.25;0.82;;;;;;;;;;5077981;28;20131;-79
2023/09/19 03:47:28;;;;;;;7.30;0.90;;;;;;;;;;5061518;28;20132;-79
2023/09/19 03:49:54;;;;;;;9.38;1.40;;;;;;;;;;5078121;28;20044;-79
2023/09/19 03:52:20;;;;;;;5.88;1.17;;;;;;;;;;5078331;28;20105;-79
2023/09/19 03:54:46;;;;;;;6.57;1.00;;;;;;;;;;5078097;28;20056;-79
2023/09/19 03:57:15;;;;;;;6.95;1.08;;;;;;;;;;5078001;28;20048;-79
2023/09/19 03:59:42;;;;;;;10.32;1.27;;;;;;;;;;5095587;28;20078;-79
2023/09/19 04:02:21;;;;;;;6.07;1.13;;;;;;;;;;5061214;28;20139;-79
2023/09/19 04:04:47;;;;;;;6.95;1.45;;;;;;;;;;5078068;28;20111;-79
2023/09/19 04:07:13;;;;;;;9.43;1.63;;;;;;;;;;5077771;28;20040;-79
2023/09/19 04:09:39;;;;;;;8.45;1.83;;;;;;;;;;5077961;28;20138;-79
2023/09/19 04:12:06;;;;;;;9.57;1.65;;;;;;;;;;5044547;28;20089;-78
2023/09/19 04:14:32;;;;;;;8.70;1.33;;;;;;;;;;5077568;28;20101;-78
2023/09/19 04:16:58;;;;;;;11.52;1.63;;;;;;;;;;5060985;28;20071;-78
2023/09/19 04:19:24;;;;;;;10.07;1.55;;;;;;;;;;5077565;28;20105;-78
2023/09/19 04:21:50;;;;;;;9.02;1.52;;;;;;;;;;5077535;28;20044;-78
2023/09/19 04:24:19;;;;;;;10.27;1.60;;;;;;;;;;5060808;28;20043;-79
2023/09/19 04:26:45;;;;;;;6.18;1.00;;;;;;;;;;5060741;28;20105;-79
2023/09/19 04:29:13;;;;;;;8.63;1.80;;;;;;;;;;5077017;28;20055;-79
2023/09/19 04:31:40;;;;;;;14.90;1.88;;;;;;;;;;5076861;28;20074;-79
2023/09/19 04:34:06;;;;;;;13.38;1.77;;;;;;;;;;5060563;28;20052;-79
2023/09/19 04:36:32;;;;;;;12.13;1.88;;;;;;;;;;5077170;28;20123;-79
2023/09/19 04:38:58;;;;;;;11.43;1.40;;;;;;;;;;5077359;28;20058;-79
2023/09/19 04:41:24;;;;;;;9.13;1.58;;;;;;;;;;5077847;28;20078;-79
2023/09/19 04:43:51;;;;;;;11.55;1.63;;;;;;;;;;5076704;28;20134;-79
2023/09/19 04:46:17;;;;;;;9.70;1.33;;;;;;;;;;5060148;28;20047;-78
2023/09/19 04:48:44;;;;;;;7.95;1.63;;;;;;;;;;5077773;28;20094;-79
2023/09/19 04:51:10;;;;;;;9.18;1.58;;;;;;;;;;5076893;28;20117;-79
2023/09/19 04:53:36;;;;;;;13.25;1.42;;;;;;;;;;5060316;28;20044;-80
2023/09/19 04:56:03;;;;;;;14.43;2.10;;;;;;;;;;5076388;28;20056;-79
2023/09/19 04:58:30;;;;;;;10.98;1.45;;;;;;;;;;5076713;28;20419;-80
2023/09/19 05:00:56;;;;;;;9.88;1.42;;;;;;;;;;5076658;28;20123;-79
2023/09/19 05:03:22;;;;;;;8.70;1.63;;;;;;;;;;5060139;28;20040;-79
2023/09/19 05:05:48;;;;;;;10.98;1.60;;;;;;;;;;5076656;28;20044;-80
2023/09/19 05:08:15;;;;;;;14.43;1.75;;;;;;;;;;5059884;28;20556;-79
2023/09/19 05:10:41;;;;;;;11.50;0.90;;;;;;;;;;5076596;28;20090;-80
2023/09/19 05:13:07;;;;;;;14.73;1.67;;;;;;;;;;5076478;28;20047;-80
2023/09/19 05:15:35;;;;;;;12.43;2.25;;;;;;;;;;5076443;28;20071;-80
2023/09/19 05:18:01;;;;;;;7.97;1.27;;;;;;;;;;5059665;28;20040;-80
2023/09/19 05:20:32;;;;;;;8.10;1.88;;;;;;;;;;5076317;28;20082;-80
2023/09/19 05:23:07;;;;;;;11.05;1.90;;;;;;;;;;5076714;28;20052;-79
2023/09/19 05:25:37;;;;;;;10.30;1.35;;;;;;;;;;5076023;28;20069;-79
2023/09/19 05:28:03;;;;;;;12.90;1.17;;;;;;;;;;5076226;28;20052;-80
2023/09/19 05:30:29;;;;;;;10.73;1.55;;;;;;;;;;5060428;28;20135;-80
2023/09/19 05:32:56;;;;;;;8.90;1.60;;;;;;;;;;5075762;28;20044;-80
2023/09/19 05:35:23;;;;;;;8.68;1.40;;;;;;;;;;5059624;28;20470;-81
2023/09/19 05:37:51;;;;;;;9.80;1.35;;;;;;;;;;5094046;28;20048;-80
2023/09/19 05:40:18;;;;;;;10.32;1.77;;;;;;;;;;5076083;28;20044;-80
2023/09/19 05:42:44;;;;;;;10.63;1.60;;;;;;;;;;5076230;28;20044;-80
2023/09/19 05:45:14;;;;;;;7.78;1.00;;;;;;;;;;5059327;28;20048;-80
2023/09/19 05:47:45;;;;;;;8.65;1.52;;;;;;;;;;5076292;28;20044;-80
2023/09/19 05:50:11;;;;;;;11.93;1.20;;;;;;;;;;5076343;28;20400;-80
2023/09/19 05:52:38;;;;;;;8.80;1.42;;;;;;;;;;5076026;28;20070;-80
2023/09/19 05:55:08;;;;;;;8.15;1.48;;;;;;;;;;5075610;28;20051;-80
2023/09/19 05:57:42;;;;;;;11.27;2.08;;;;;;;;;;5075867;28;20048;-81
2023/09/19 06:00:10;;;;;;;11.43;1.60;;;;;;;;;;5059533;28;20052;-80
2023/09/19 06:02:37;;;;;;;11.25;1.70;;;;;;;;;;5075607;28;20543;-80
2023/09/19 06:05:06;;;;;;;9.02;1.33;;;;;;;;;;5075677;28;20055;-80
2023/09/19 06:07:36;;;;;;;8.65;1.27;;;;;;;;;;5059069;28;20040;-79
2023/09/19 06:10:05;;;;;;;11.07;1.80;;;;;;;;;;5076298;28;20375;-79
2023/09/19 06:12:32;;;;;;;13.90;1.50;;;;;;;;;;5076016;28;20180;-79
2023/09/19 06:14:59;;;;;;;11.45;1.50;;;;;;;;;;5076047;28;20052;-80
2023/09/19 06:17:26;;;;;;;9.32;1.35;;;;;;;;;;5075741;28;20044;-80
2023/09/19 06:19:52;;;;;;;9.45;1.38;;;;;;;;;;5093610;28;20048;-80
2023/09/19 06:22:19;;;;;;;8.52;1.40;;;;;;;;;;5076422;28;20464;-81
2023/09/19 06:24:46;;;;;;;8.18;1.20;;;;;;;;;;5076282;28;20070;-80
2023/09/19 06:27:13;;;;;;;8.68;1.45;;;;;;;;;;5075548;28;20498;-79
2023/09/19 06:29:39;;;;;;;9.13;1.10;;;;;;;;;;5059247;28;20093;-80
2023/09/19 06:32:10;;;;;;;10.73;1.48;;;;;;;;;;5075321;28;20114;-80
2023/09/19 06:34:37;;;;;;;8.30;1.30;;;;;;;;;;5059697;28;20036;-79
2023/09/19 06:37:03;;;;;;;8.52;1.40;;;;;;;;;;5058889;28;20063;-80
2023/09/19 06:39:30;;;;;;;7.70;1.35;;;;;;;;;;5058841;28;20080;-79
2023/09/19 06:41:57;;;;;;;8.73;1.35;;;;;;;;;;5059947;28;20384;-79
2023/09/19 06:44:24;;;;;;;10.02;1.70;;;;;;;;;;5042940;28;20051;-79
2023/09/19 06:46:51;;;;;;;13.63;1.40;;;;;;;;;;5079561;28;20127;-78
2023/09/19 06:49:17;;;;;;;11.48;1.13;;;;;;;;;;5062612;28;20055;-80
2023/09/19 06:51:44;;;;;;;8.60;1.65;;;;;;;;;;5079220;28;20483;-78
2023/09/19 06:54:10;;;;;;;11.68;1.88;;;;;;;;;;5078642;28;20048;-80
2023/09/19 06:56:36;;;;;;;6.93;1.02;;;;;;;;;;5059952;28;20049;-79
2023/09/19 06:59:05;;;;;;;8.85;1.65;;;;;;;;;;5059839;28;20055;-79
2023/09/19 07:01:32;;;;;;;9.27;1.45;;;;;;;;;;5059429;28;20135;-79
2023/09/19 07:03:58;;;;;;;7.80;1.30;;;;;;;;;;5058905;28;20064;-79
2023/09/19 07:06:24;;;;;;;6.88;1.27;;;;;;;;;;5058589;28;20127;-79
2023/09/19 07:08:50;;;;;;;10.52;1.40;;;;;;;;;;5042511;28;20052;-80
2023/09/19 07:11:16;;;;;;;9.07;1.35;;;;;;;;;;5059128;28;20048;-80
2023/09/19 07:13:43;;;;;;;9.15;1.63;;;;;;;;;;5058714;28;20102;-79
2023/09/19 07:16:27;;;;;;;9.90;1.63;;;;;;;;;;5058637;28;20484;-79
2023/09/19 07:18:53;;;;;;;5.78;1.00;;;;;;;;;;5044638;28;20044;-80
2023/09/19 07:21:19;;;;;;;9.07;1.00;;;;;;;;;;5042320;28;20500;-80
2023/09/19 07:23:45;;;;;;;11.20;1.50;;;;;;;;;;5058561;28;20048;-79
2023/09/19 07:26:11;;;;;;;7.82;1.30;;;;;;;;;;5041989;28;20384;-79
2023/09/19 07:28:37;;;;;;;8.10;1.10;;;;;;;;;;5058516;28;20179;-79
2023/09/19 07:31:04;;;;;;;7.30;1.73;;;;;;;;;;5058455;28;20500;-79
2023/09/19 07:33:31;;;;;;;8.05;1.15;;;;;;;;;;5058316;28;20055;-79
2023/09/19 07:35:57;;;;;;;9.70;1.17;;;;;;;;;;5041822;28;20044;-79
2023/09/19 07:38:23;;;;;;;7.25;1.20;;;;;;;;;;5042448;28;20044;-80
2023/09/19 07:40:49;;;;;;;10.50;1.10;;;;;;;;;;5058781;28;20060;-79
2023/09/19 07:43:15;;;;;;;9.88;1.40;;;;;;;;;;5058173;28;20037;-79
2023/09/19 07:45:41;;;;;;;7.60;0.98;;;;;;;;;;5041459;28;20041;-79
2023/09/19 07:48:14;;;;;;;10.02;1.40;;;;;;;;;;5041572;28;20423;-80
2023/09/19 07:50:43;;;;;;;11.10;1.40;;;;;;;;;;5041259;28;20054;-79
2023/09/19 07:53:09;;;;;;;6.90;1.08;;;;;;;;;;5057969;28;20481;-79
2023/09/19 07:55:35;;;;;;;7.25;1.30;;;;;;;;;;5070083;28;20060;-79
2023/09/19 07:58:04;;;;;;;8.02;1.10;;;;;;;;;;5078209;28;20052;-80
2023/09/19 08:00:30;;;;;;;11.02;1.25;;;;;;;;;;5061270;28;20052;-79
2023/09/19 08:02:56;;;;;;;7.15;1.23;;;;;;;;;;5078003;28;20058;-79
2023/09/19 08:05:22;;;;;;;9.95;1.30;;;;;;;;;;5078044;28;20044;-79
2023/09/19 08:07:49;;;;;;;8.52;1.30;;;;;;;;;;5061180;28;20054;-79
2023/09/19 08:10:16;;;;;;;10.48;2.13;;;;;;;;;;5060716;28;20127;-79
2023/09/19 08:12:48;;;;;;;10.63;1.05;;;;;;;;;;5077935;28;20040;-79
2023/09/19 08:15:15;;;;;;;10.82;1.70;;;;;;;;;;5078525;28;20050;-79
2023/09/19 08:17:41;;;;;;;12.82;1.55;;;;;;;;;;5077661;28;20051;-79
2023/09/19 08:20:08;;;;;;;15.25;2.22;;;;;;;;;;5077534;28;20050;-79
2023/09/19 08:22:34;;;;;;;12.30;1.40;;;;;;;;;;5061160;28;20070;-79
2023/09/19 08:25:04;;;;;;;10.15;1.88;;;;;;;;;;5095317;28;20048;-79
2023/09/19 08:27:30;;;;;;;9.85;1.48;;;;;;;;;;5077416;28;20052;-79
2023/09/19 08:29:56;;;;;;;10.20;1.23;;;;;;;;;;5077378;28;20052;-80
2023/09/19 08:32:25;;;;;;;12.30;2.22;;;;;;;;;;5077600;28;20056;-79
2023/09/19 08:34:51;;;;;;;13.43;1.38;;;;;;;;;;5061050;28;20048;-79
2023/09/19 08:37:19;;;;;;;8.07;1.33;;;;;;;;;;5060645;28;20048;-79
2023/09/19 08:39:45;;;;;;;10.18;1.55;;;;;;;;;;5061313;28;20044;-80
2023/09/19 08:42:12;;;;;;;9.00;1.63;;;;;;;;;;5077106;28;20139;-79
2023/09/19 08:44:40;;;;;;;10.77;1.52;;;;;;;;;;5060631;28;20484;-79
2023/09/19 08:47:10;;;;;;;10.57;1.90;;;;;;;;;;5077749;28;20043;-79
2023/09/19 08:49:40;;;;;;;10.50;2.00;;;;;;;;;;5077050;28;20114;-79
2023/09/19 08:52:11;;;;;;;13.30;1.88;;;;;;;;;;5077181;28;20044;-79
2023/09/19 08:54:39;;;;;;;11.93;1.52;;;;;;;;;;5074140;28;20043;-79
2023/09/19 08:57:10;;;;;;;8.98;1.63;;;;;;;;;;5075012;28;20049;-79
2023/09/19 08:59:39;;;;;;;9.23;1.75;;;;;;;;;;5041238;28;20386;-79
2023/09/19 09:02:11;;;;;;;9.25;1.25;;;;;;;;;;5056700;28;20044;-80
2023/09/19 09:04:39;;;;;;;13.32;2.15;;;;;;;;;;5057475;28;20049;-79
2023/09/19 09:07:05;;;;;;;8.40;1.95;;;;;;;;;;5056311;28;20048;-79
2023/09/19 09:09:31;;;;;;;12.35;1.73;;;;;;;;;;5073308;28;20053;-79
2023/09/19 09:11:58;;;;;;;10.48;1.85;;;;;;;;;;5040810;28;20377;-79
2023/09/19 09:14:25;;;;;;;11.10;1.67;;;;;;;;;;5039847;28;20052;-79
2023/09/19 09:16:51;;;;;;;11.13;2.00;;;;;;;;;;5039900;28;20056;-79
2023/09/19 09:19:24;;;;;;;7.65;1.65;;;;;;;;;;5056429;28;20048;-79
2023/09/19 09:21:50;;;;;;;10.45;1.98;;;;;;;;;;5056673;28;20052;-79
2023/09/19 09:24:29;;;;;;;10.38;2.00;;;;;;;;;;5040178;28;20101;-79
2023/09/19 09:26:57;;;;;;;8.65;1.20;;;;;;;;;;5055966;28;20066;-79
2023/09/19 09:29:42;;;;;;;8.50;1.58;;;;;;;;;;5056272;28;20057;-79
2023/09/19 09:32:23;;;;;;;10.43;1.75;;;;;;;;;;5056212;28;20044;-79
2023/09/19 09:34:57;;;;;;;8.82;1.45;;;;;;;;;;5056191;28;20055;-79
2023/09/19 09:37:28;;;;;;;8.43;1.47;;;;;;;;;;5039569;28;20044;-79
2023/09/19 09:39:56;;;;;;;8.48;1.50;;;;;;;;;;5056339;28;20472;-79
2023/09/19 09:42:41;;;;;;;7.75;1.25;;;;;;;;;;5056070;28;20114;-79
2023/09/19 09:45:14;;;;;;;10.65;1.60;;;;;;;;;;5055969;28;20074;-79
2023/09/19 09:47:56;;;;;;;11.30;1.83;;;;;;;;;;5039698;28;20048;-79
2023/09/19 09:53:08;;;;;;;11.85;1.88;;;;;;;;;;5040205;28;20055;-79
2023/09/19 09:55:58;;;;;;;14.45;1.98;;;;;;;;;;5073851;28;20099;-80
2023/09/19 09:58:28;;;;;;;9.63;1.02;;;;;;;;;;5055675;28;20053;-79
2023/09/19 10:00:59;;;;;;;9.02;1.65;;;;;;;;;;5056698;28;20088;-80
2023/09/19 10:03:49;;;;;;;7.82;1.50;;;;;;;;;;5056707;28;20044;-82
2023/09/19 10:06:25;;;;;;;12.23;1.75;;;;;;;;;;5039720;28;20075;-80
2023/09/19 10:09:04;;;;;;;10.45;1.83;;;;;;;;;;5056064;28;20067;-83
2023/09/19 10:11:30;;;;;;;11.23;1.80;;;;;;;;;;5056692;28;20049;-79
2023/09/19 10:13:57;;;;;;;7.35;1.42;;;;;;;;;;5039253;28;20090;-79
2023/09/19 10:16:24;;;;;;;10.15;1.90;;;;;;;;;;5055614;28;20080;-79
2023/09/19 10:18:52;;;;;;;14.80;2.35;;;;;;;;;;5056541;28;20080;-79
2023/09/19 10:21:22;;;;;;;9.43;1.60;;;;;;;;;;5077803;28;20070;-79
2023/09/19 10:23:49;;;;;;;8.13;1.52;;;;;;;;;;5059770;28;20052;-79
2023/09/19 10:26:18;;;;;;;10.45;1.50;;;;;;;;;;5059459;28;20051;-79
2023/09/19 10:28:48;;;;;;;12.02;1.83;;;;;;;;;;5077839;28;20040;-79
2023/09/19 10:31:19;;;;;;;9.60;1.83;;;;;;;;;;5059546;28;20056;-79
2023/09/19 10:33:46;;;;;;;7.18;1.77;;;;;;;;;;5060390;28;20044;-79
2023/09/19 10:36:12;;;;;;;11.13;1.83;;;;;;;;;;5059539;28;20055;-79
2023/09/19 10:38:40;;;;;;;9.30;1.63;;;;;;;;;;5059439;28;20492;-79
2023/09/19 10:41:07;;;;;;;11.60;1.95;;;;;;;;;;5059357;28;20435;-79
2023/09/19 10:43:34;;;;;;;11.68;1.83;;;;;;;;;;5058696;28;20526;-79
2023/09/19 10:46:07;;;;;;;10.07;1.60;;;;;;;;;;5059888;28;20036;-79
2023/09/19 10:48:33;;;;;;;10.25;1.83;;;;;;;;;;5042403;28;20056;-80
2023/09/19 10:51:09;;;;;;;9.77;1.40;;;;;;;;;;5059070;28;20505;-79
2023/09/19 10:54:15;;;;;;;12.60;1.45;;;;;;;;;;5059760;28;20503;-80
2023/09/19 10:56:49;;;;;;;10.80;1.65;;;;;;;;;;4998765;28;20062;-79
2023/09/19 10:59:16;;;;;;;11.43;1.88;;;;;;;;;;4999347;28;20465;-79
2023/09/19 11:01:52;;;;;;;7.07;1.48;;;;;;;;;;5025787;28;20056;-79
2023/09/19 11:04:38;;;;;;;9.70;1.67;;;;;;;;;;5064653;28;20051;-79
2023/09/19 11:07:08;;;;;;;10.10;1.45;;;;;;;;;;5079309;28;20070;-78
2023/09/19 11:09:47;;;;;;;13.80;1.63;;;;;;;;;;5078982;28;20108;-79
2023/09/19 11:12:45;;;;;;;10.25;1.48;;;;;;;;;;5078929;28;20484;-79
2023/09/19 11:15:33;;;;;;;12.57;1.85;;;;;;;;;;5061909;28;20063;-79
2023/09/19 11:17:59;;;;;;;9.05;1.70;;;;;;;;;;5078096;28;20040;-79
2023/09/19 11:20:35;;;;;;;9.73;1.65;;;;;;;;;;5079281;28;20099;-80
2023/09/19 11:23:17;;;;;;;11.13;1.42;;;;;;;;;;5078884;28;20044;-79
2023/09/19 11:25:51;;;;;;;8.88;1.15;;;;;;;;;;5078015;28;20044;-80
2023/09/19 11:28:18;;;;;;;7.88;1.35;;;;;;;;;;5096212;28;20048;-80
2023/09/19 11:30:45;;;;;;;7.63;1.15;;;;;;;;;;5077592;28;20478;-79
2023/09/19 11:33:37;;;;;;;6.38;1.25;;;;;;;;;;5077949;28;20055;-79
2023/09/19 11:36:03;;;;;;;9.50;1.45;;;;;;;;;;5062287;28;20156;-79
2023/09/19 11:38:44;;;;;;;10.48;1.20;;;;;;;;;;5095928;28;20048;-80
2023/09/19 11:41:26;;;;;;;5.93;1.27;;;;;;;;;;5078241;28;20051;-82
2023/09/19 11:44:03;;;;;;;9.30;1.20;;;;;;;;;;5078254;28;20437;-80
2023/09/19 11:46:30;;;;;;;9.25;1.45;;;;;;;;;;5077990;28;20080;-80
2023/09/19 11:49:06;;;;;;;8.50;1.30;;;;;;;;;;5062267;28;20040;-80
2023/09/19 11:51:41;;;;;;;8.23;1.50;;;;;;;;;;5078620;28;20126;-80
2023/09/19 11:54:17;;;;;;;7.88;1.20;;;;;;;;;;5078331;28;20069;-80
2023/09/19 11:56:45;;;;;;;6.63;1.00;;;;;;;;;;5058665;28;20424;-79
2023/09/19 11:59:11;;;;;;;10.13;2.00;;;;;;;;;;5075370;28;20087;-84
2023/09/19 12:01:40;;;;;;;10.68;1.17;;;;;;;;;;5057641;28;20045;-80
2023/09/19 12:04:08;;;;;;;8.40;1.63;;;;;;;;;;5040995;28;20492;-80
2023/09/19 12:06:36;;;;;;;11.38;1.30;;;;;;;;;;5057302;28;20132;-79
2023/09/19 12:09:06;;;;;;;7.28;1.30;;;;;;;;;;5057389;28;20076;-79
2023/09/19 12:11:33;;;;;;;11.15;1.45;;;;;;;;;;5040851;28;20055;-81
2023/09/19 12:14:03;;;;;;;7.30;0.93;;;;;;;;;;5057818;28;20044;-80
2023/09/19 12:16:30;;;;;;;7.80;1.15;;;;;;;;;;5057926;28;20070;-79
2023/09/19 12:18:57;;;;;;;7.60;0.88;;;;;;;;;;5057436;28;20044;-79
2023/09/19 12:21:27;;;;;;;9.27;1.42;;;;;;;;;;5040949;28;20051;-79
2023/09/19 12:23:57;;;;;;;8.73;1.38;;;;;;;;;;5041100;28;20044;-79
2023/09/19 12:26:24;;;;;;;8.25;1.20;;;;;;;;;;5057169;28;20403;-79
2023/09/19 12:28:52;;;;;;;7.35;1.08;;;;;;;;;;5057576;28;20071;-79
2023/09/19 12:31:19;;;;;;;5.45;0.80;;;;;;;;;;5024560;28;20044;-78
2023/09/19 12:33:45;;;;;;;4.43;0.85;;;;;;;;;;5057188;28;20048;-80
2023/09/19 12:36:28;;;;;;;8.13;1.35;;;;;;;;;;5040693;28;20056;-79
2023/09/19 12:38:55;;;;;;;6.13;1.02;;;;;;;;;;5056840;28;20048;-80
2023/09/19 12:41:22;;;;;;;6.20;1.10;;;;;;;;;;5040487;28;20091;-79
2023/09/19 12:43:48;;;;;;;8.95;1.20;;;;;;;;;;5056659;28;20052;-79
2023/09/19 12:46:15;;;;;;;7.45;1.23;;;;;;;;;;5056710;28;20582;-79
2023/09/19 12:48:44;;;;;;;4.13;0.65;;;;;;;;;;5040507;28;20045;-79
2023/09/19 12:51:12;;;;;;;7.53;1.38;;;;;;;;;;5056522;28;20048;-79
2023/09/19 12:53:43;;;;;;;4.38;1.23;;;;;;;;;;5056951;28;20587;-79
2023/09/19 12:56:16;;;;;;;7.15;0.85;;;;;;;;;;5072096;28;20438;-79
2023/09/19 12:59:13;;;;;;;7.65;1.08;;;;;;;;;;5076868;28;20054;-78
2023/09/19 13:01:43;;;;;;;7.07;1.17;;;;;;;;;;5060489;28;20109;-79
2023/09/19 13:04:28;;;;;;;5.03;1.13;;;;;;;;;;5077027;28;20056;-80
2023/09/19 13:06:55;;;;;;;;;;;;;;;;;;5060624;28;20047;-80
2023/09/19 13:09:21;;;;;;;5.55;1.05;;;;;;;;;;5059753;28;19953;-80
2023/09/19 13:11:49;;;;;;;7.47;1.10;;;;;;;;;;5060539;28;20117;-81
2023/09/19 13:14:31;;;;;;;7.63;1.58;;;;;;;;;;5059922;28;20117;-79
2023/09/19 13:17:03;;;;;;;5.78;1.00;;;;;;;;;;5076513;28;20040;-79
2023/09/19 13:19:40;;;;;;;7.68;0.77;;;;;;;;;;5094586;28;20096;-82
2023/09/19 13:22:26;;;;;;;3.45;0.70;;;;;;;;;;5059497;28;20097;-80
2023/09/19 13:24:52;;;;;;;8.07;1.17;;;;;;;;;;5059852;28;20457;-80
2023/09/19 13:27:18;;;;;;;6.28;0.88;;;;;;;;;;5076085;28;20040;-78
2023/09/19 13:29:44;;;;;;;5.47;0.70;;;;;;;;;;5076333;28;20130;-79
2023/09/19 13:32:11;;;;;;;5.88;0.80;;;;;;;;;;5077054;28;20048;-79
2023/09/19 13:34:37;;;;;;;4.28;0.60;;;;;;;;;;5076317;28;20106;-79
2023/09/19 13:37:04;;;;;;;7.18;1.00;;;;;;;;;;5094065;28;20090;-79
2023/09/19 13:39:30;;;;;;;5.00;0.70;;;;;;;;;;5076076;28;20047;-79
2023/09/19 13:41:57;;;;;;;5.10;0.60;;;;;;;;;;5094345;28;20128;-79
2023/09/19 13:44:23;;;;;;;7.47;0.75;;;;;;;;;;5060257;28;20043;-79
2023/09/19 13:46:49;;;;;;;5.57;0.90;;;;;;;;;;5075855;28;20044;-79
2023/09/19 13:49:15;;;;;;;6.95;0.93;;;;;;;;;;5093918;28;20059;-79
2023/09/19 13:51:43;;;;;;;7.88;0.75;;;;;;;;;;5076144;28;20079;-79
2023/09/19 13:54:11;;;;;;;5.45;0.82;;;;;;;;;;5075472;28;20047;-79
2023/09/19 13:56:38;;;;;;;5.03;0.60;;;;;;;;;;5026476;28;20052;-79
2023/09/19 13:59:04;;;;;;;4.60;0.60;;;;;;;;;;5055921;28;20155;-79
2023/09/19 14:01:30;;;;;;;4.05;0.50;;;;;;;;;;5055850;28;20480;-78
2023/09/19 14:03:57;;;;;;;5.20;0.68;;;;;;;;;;5055809;28;20044;-79
2023/09/19 14:06:23;;;;;;;4.45;0.88;;;;;;;;;;5055286;28;20094;-79
2023/09/19 14:08:49;;;;;;;5.68;0.65;;;;;;;;;;5073995;28;20074;-79
2023/09/19 14:11:16;;;;;;;3.78;0.50;;;;;;;;;;5055790;28;20080;-79
2023/09/19 14:13:46;;;;;;;4.95;0.30;;;;;;;;;;5055771;28;20477;-78
2023/09/19 14:16:13;;;;;;;5.50;0.60;;;;;;;;;;5056047;28;20061;-79
2023/09/19 14:18:39;;;;;;;6.50;0.40;;;;;;;;;;5056215;28;20054;-79
2023/09/19 14:21:06;;;;;;;3.20;0.40;;;;;;;;;;5038975;28;20494;-78
2023/09/19 14:23:38;;;;;;;2.88;0.40;;;;;;;;;;5056412;28;20090;-78
2023/09/19 14:26:05;;;;;;;5.22;0.40;;;;;;;;;;5039024;28;20045;-78
2023/09/19 14:28:33;;;;;;;2.42;0.40;;;;;;;;;;5073306;28;20113;-79
2023/09/19 14:31:05;;;;;;;3.80;0.50;;;;;;;;;;5056456;28;20049;-79
2023/09/19 14:33:31;;;;;;;3.47;0.40;;;;;;;;;;5055880;28;20052;-78
2023/09/19 14:35:57;;;;;;;3.97;0.40;;;;;;;;;;5055279;28;20476;-78
2023/09/19 14:38:23;;;;;;;5.00;0.47;;;;;;;;;;5055538;28;20063;-78
2023/09/19 14:40:50;;;;;;;5.13;0.40;;;;;;;;;;5038853;28;20477;-78
2023/09/19 14:43:17;;;;;;;5.82;0.60;;;;;;;;;;5038849;28;20055;-79
2023/09/19 14:45:43;;;;;;;5.55;0.50;;;;;;;;;;5055247;28;20106;-79
2023/09/19 14:48:09;;;;;;;4.35;0.57;;;;;;;;;;5055412;28;20048;-79
2023/09/19 14:50:35;;;;;;;3.63;0.50;;;;;;;;;;5055404;28;20075;-79
2023/09/19 14:53:02;;;;;;;5.35;0.32;;;;;;;;;;5038870;28;20481;-79
2023/09/19 14:55:34;;;;;;;3.17;0.40;;;;;;;;;;5045815;28;20393;-79